Time;durP1;ratioP1;P1;durP2;ratioP2;P2;SDS_P1;SDS_P2;PMS_P1;PMS_P2;Temp;Humidity;BMP_temperature;BMP_pressure;BME280_temperature;BME280_humidity;BME280_pressure;Samples;Min_cycle;Max_cycle;Signal;HPM_P1;HPM_P2
2022/01/29 00:00:30;;;;;;;12.03;5.47;;;;;;;1.39;83.98;100952.72;4992411;28;20035;-80
2022/01/29 00:02:56;;;;;;;11.37;6.83;;;;;;;1.66;84.32;101004.09;4992633;28;20085;-78
2022/01/29 00:05:21;;;;;;;12.43;7.00;;;;;;;1.67;83.98;100995.69;4992627;28;20041;-75
2022/01/29 00:07:47;;;;;;;12.80;6.30;;;;;;;1.64;84.02;101000.53;4959739;28;20027;-77
2022/01/29 00:10:14;;;;;;;12.93;7.10;;;;;;;1.38;84.69;100966.22;4970108;28;20062;-77
2022/01/29 00:12:40;;;;;;;11.57;6.97;;;;;;;1.57;84.50;101006.78;4991631;28;20038;-77
2022/01/29 00:15:06;;;;;;;12.23;7.00;;;;;;;1.51;83.98;100993.56;4991196;28;20035;-78
2022/01/29 00:17:31;;;;;;;10.60;5.20;;;;;;;1.48;84.36;101010.22;4991800;28;20042;-75
2022/01/29 00:19:57;;;;;;;10.93;6.53;;;;;;;1.47;84.70;101011.00;4974988;28;20456;-76
2022/01/29 00:22:23;;;;;;;13.37;7.23;;;;;;;1.24;84.38;100975.25;4992601;28;20038;-74
2022/01/29 00:24:49;;;;;;;11.27;6.37;;;;;;;1.51;84.17;101011.38;4992664;28;20038;-76
2022/01/29 00:27:16;;;;;;;9.07;5.63;;;;;;;1.51;83.53;101011.38;4992156;28;20022;-75
2022/01/29 00:29:43;;;;;;;11.43;6.50;;;;;;;1.41;83.54;101003.75;4992236;28;20073;-78
2022/01/29 00:32:10;;;;;;;8.87;5.93;;;;;;;1.54;83.41;101015.81;4992543;28;20424;-79
2022/01/29 00:34:36;;;;;;;11.90;5.93;;;;;;;1.54;82.95;101011.59;4992158;28;20061;-75
2022/01/29 00:37:02;;;;;;;11.37;5.97;;;;;;;1.53;82.41;101014.03;4992329;28;20066;-78
2022/01/29 00:39:27;;;;;;;10.80;6.63;;;;;;;1.65;81.65;101011.63;4992176;28;20068;-76
2022/01/29 00:41:53;;;;;;;11.30;6.27;;;;;;;1.61;82.00;101005.38;4991895;28;20058;-73
2022/01/29 00:44:19;;;;;;;10.97;5.87;;;;;;;1.64;82.00;101018.34;4991635;28;20393;-78
2022/01/29 00:46:44;;;;;;;11.40;5.83;;;;;;;1.66;81.97;101019.38;4972225;28;20046;-76
2022/01/29 00:49:11;;;;;;;11.93;6.60;;;;;;;1.50;82.39;100991.78;4970152;28;20524;-75
2022/01/29 00:51:36;;;;;;;11.30;6.63;;;;;;;1.55;82.07;100995.56;4970135;28;20046;-75
2022/01/29 00:54:02;;;;;;;11.40;6.03;;;;;;;1.63;82.14;101002.97;4931477;28;1148819;-78
2022/01/29 00:56:28;;;;;;;11.07;6.37;;;;;;;1.60;82.51;101004.47;4970985;28;20046;-81
2022/01/29 00:58:53;;;;;;;12.43;5.97;;;;;;;1.67;82.39;101013.53;4954274;28;20828;-79
2022/01/29 01:01:19;;;;;;;9.83;5.80;;;;;;;1.56;82.45;100996.50;4970875;28;20051;-77
2022/01/29 01:03:44;;;;;;;10.23;4.53;;;;;;;1.67;82.76;101010.97;4987307;28;20038;-76
2022/01/29 01:06:10;;;;;;;13.43;7.27;;;;;;;1.65;82.81;101011.63;4968703;28;20100;-77
2022/01/29 01:08:35;;;;;;;13.43;5.73;;;;;;;1.59;82.78;100999.28;4988298;28;20497;-77
2022/01/29 01:11:02;;;;;;;11.07;6.83;;;;;;;1.44;83.81;100984.50;4989705;28;20089;-81
2022/01/29 01:13:28;;;;;;;10.93;6.87;;;;;;;1.53;83.73;101003.84;4989563;28;20045;-77
2022/01/29 01:15:54;;;;;;;10.13;4.77;;;;;;;1.52;83.29;101007.16;4988936;28;20034;-77
2022/01/29 01:18:19;;;;;;;10.87;5.97;;;;;;;1.56;83.27;100996.50;4991555;28;20416;-81
2022/01/29 01:20:46;;;;;;;11.93;6.80;;;;;;;1.61;83.55;101005.38;5007191;28;20088;-80
2022/01/29 01:23:12;;;;;;;11.70;6.53;;;;;;;1.52;83.58;100995.34;4992173;28;20035;-77
2022/01/29 01:25:37;;;;;;;11.43;6.13;;;;;;;1.60;83.32;101007.03;4992196;28;20539;-79
2022/01/29 01:28:03;;;;;;;13.73;7.40;;;;;;;1.62;83.27;101002.06;4992002;28;20465;-78
2022/01/29 01:30:28;;;;;;;9.77;6.20;;;;;;;1.51;83.71;100990.09;4992181;28;20598;-77
2022/01/29 01:32:54;;;;;;;11.40;6.17;;;;;;;1.49;83.59;100978.94;4992065;28;20065;-78
2022/01/29 01:35:25;;;;;;;10.57;5.57;;;;;;;1.55;83.43;100989.63;4991928;28;20026;-75
2022/01/29 01:38:05;;;;;;;12.97;7.43;;;;;;;1.54;83.99;100998.88;4990632;28;20181;-79
2022/01/29 01:40:30;;;;;;;;;;;;;;;1.53;83.48;100988.59;5003136;28;20548;-78
2022/01/29 01:43:00;;;;;;;12.10;6.83;;;;;;;1.39;83.48;100970.53;4991613;28;20024;-77
2022/01/29 01:45:27;;;;;;;12.07;6.93;;;;;;;1.53;83.25;100991.13;4989420;28;20065;-77
2022/01/29 01:47:52;;;;;;;13.53;7.10;;;;;;;1.35;83.49;100967.63;4990982;28;20459;-78
2022/01/29 01:50:18;;;;;;;12.17;7.37;;;;;;;1.25;84.01;100994.84;4990385;28;20022;-78
2022/01/29 01:52:43;;;;;;;12.43;7.27;;;;;;;1.29;83.98;101001.94;4991697;28;20440;-77
2022/01/29 01:55:09;;;;;;;13.47;6.87;;;;;;;1.25;84.32;100996.50;4990358;28;20157;-80
2022/01/29 01:57:34;;;;;;;12.73;7.20;;;;;;;0.95;85.12;100955.06;4988306;28;20490;-80
2022/01/29 02:00:00;;;;;;;12.97;7.07;;;;;;;1.01;85.61;100975.00;4989186;28;20390;-75
2022/01/29 02:02:25;;;;;;;11.13;6.63;;;;;;;1.09;85.89;100994.34;4989200;28;20116;-77
2022/01/29 02:04:51;;;;;;;12.10;6.43;;;;;;;0.96;86.08;100982.28;4989108;28;20552;-76
2022/01/29 02:07:18;;;;;;;13.17;6.60;;;;;;;0.75;86.66;100964.44;4989154;28;20045;-74
2022/01/29 02:09:43;;;;;;;13.00;7.07;;;;;;;0.78;86.66;100964.69;4988765;28;20113;-75
2022/01/29 02:12:10;;;;;;;12.07;7.57;;;;;;;0.96;86.94;100993.31;4987676;28;20181;-77
2022/01/29 02:14:38;;;;;;;12.70;6.43;;;;;;;0.93;87.20;101004.88;4972357;28;20034;-77
2022/01/29 02:17:05;;;;;;;12.83;6.50;;;;;;;0.69;87.05;100963.94;4987689;28;20054;-77
2022/01/29 02:19:31;;;;;;;13.43;7.37;;;;;;;0.76;86.56;100971.31;4988859;28;20762;-75
2022/01/29 02:21:57;;;;;;;12.20;6.60;;;;;;;0.91;86.68;101009.84;4987951;28;20029;-78
2022/01/29 02:24:23;;;;;;;11.97;6.77;;;;;;;0.90;87.48;101023.31;4987080;28;20105;-76
2022/01/29 02:26:49;;;;;;;14.40;7.73;;;;;;;0.92;87.11;101024.34;4988163;28;20143;-79
2022/01/29 02:29:15;;;;;;;11.87;7.27;;;;;;;0.87;87.40;101012.00;4990117;28;20040;-77
2022/01/29 02:31:56;;;;;;;11.27;7.33;;;;;;;0.77;87.31;101012.84;4990254;28;20030;-75
2022/01/29 02:34:22;;;;;;;12.67;7.23;;;;;;;0.69;87.91;101003.72;4990444;28;20022;-77
2022/01/29 02:36:48;;;;;;;11.63;6.73;;;;;;;0.74;87.95;101017.69;4989605;28;20034;-77
2022/01/29 02:39:16;;;;;;;12.50;7.07;;;;;;;0.66;88.21;101017.03;4990454;28;20377;-79
2022/01/29 02:41:44;;;;;;;12.43;7.13;;;;;;;0.53;88.25;101009.13;4989488;28;20061;-78
2022/01/29 02:44:15;;;;;;;11.17;6.67;;;;;;;0.57;89.04;101023.88;4990626;28;20114;-77
2022/01/29 02:46:52;;;;;;;15.23;8.17;;;;;;;0.63;88.81;101024.38;4991251;28;20035;-81
2022/01/29 02:49:21;;;;;;;11.77;6.93;;;;;;;0.64;88.47;101021.09;4990713;28;20038;-77
2022/01/29 02:51:49;;;;;;;13.17;7.57;;;;;;;0.67;88.14;101031.50;4991127;28;20030;-78
2022/01/29 02:54:16;;;;;;;14.57;8.20;;;;;;;0.76;87.90;101031.41;4991179;28;20065;-77
2022/01/29 02:56:42;;;;;;;13.53;7.70;;;;;;;0.82;86.77;101009.03;4991089;28;20117;-78
2022/01/29 02:59:07;;;;;;;12.17;7.33;;;;;;;0.48;86.26;100945.22;4990898;28;20041;-75
2022/01/29 03:01:33;;;;;;;10.87;7.07;;;;;;;0.92;85.99;101026.88;4991055;28;20034;-77
2022/01/29 03:03:58;;;;;;;14.63;7.27;;;;;;;0.80;86.23;101041.09;4990579;28;20034;-78
2022/01/29 03:06:24;;;;;;;11.73;6.63;;;;;;;0.83;86.37;101043.00;4990267;28;20105;-76
2022/01/29 03:08:49;;;;;;;13.23;8.53;;;;;;;0.87;86.32;101039.94;4990136;28;20512;-78
2022/01/29 03:11:19;;;;;;;11.47;7.07;;;;;;;0.77;85.98;101026.47;4990298;28;20033;-74
2022/01/29 03:13:45;;;;;;;16.07;7.77;;;;;;;0.80;86.02;101034.34;4990223;28;20023;-77
2022/01/29 03:16:10;;;;;;;14.43;8.00;;;;;;;0.63;86.68;101025.28;4989922;28;20026;-77
2022/01/29 03:18:36;;;;;;;12.30;7.47;;;;;;;0.55;88.16;101045.69;4990288;28;20411;-76
2022/01/29 03:21:01;;;;;;;12.93;7.00;;;;;;;0.30;88.33;101018.19;4988869;28;20441;-77
2022/01/29 03:23:27;;;;;;;12.07;7.40;;;;;;;0.40;88.82;101041.09;4990265;28;20586;-78
2022/01/29 03:25:52;;;;;;;11.80;7.00;;;;;;;0.28;88.69;101027.31;4990268;28;20085;-78
2022/01/29 03:28:17;;;;;;;12.70;7.50;;;;;;;0.48;88.69;101045.16;4990193;28;20096;-77
2022/01/29 03:30:43;;;;;;;13.80;8.27;;;;;;;0.50;88.25;101030.09;4989940;28;20480;-77
2022/01/29 03:33:08;;;;;;;15.53;7.77;;;;;;;0.60;87.92;101031.75;4990025;28;20026;-76
2022/01/29 03:35:34;;;;;;;12.77;7.23;;;;;;;0.78;87.41;101045.13;4990672;28;20030;-77
2022/01/29 03:38:00;;;;;;;12.70;7.73;;;;;;;0.68;86.85;101050.22;4989849;28;20026;-75
2022/01/29 03:40:25;;;;;;;12.90;8.07;;;;;;;0.61;86.89;101034.44;4993930;28;20496;-77
2022/01/29 03:43:03;;;;;;;12.03;7.73;;;;;;;0.69;86.82;101049.44;4994060;28;20033;-76
2022/01/29 03:45:29;;;;;;;12.23;7.47;;;;;;;0.40;86.79;101028.38;4992985;28;20080;-73
2022/01/29 03:47:55;;;;;;;13.20;7.60;;;;;;;0.50;87.01;101046.94;4993478;28;20026;-74
2022/01/29 03:50:21;;;;;;;13.43;8.23;;;;;;;0.47;86.87;101055.19;4993655;28;20121;-76
2022/01/29 03:52:46;;;;;;;13.30;7.27;;;;;;;0.35;86.96;101037.25;4994187;28;20050;-73
2022/01/29 03:55:11;;;;;;;14.00;7.00;;;;;;;0.58;86.93;101061.22;4993928;28;20022;-78
2022/01/29 03:57:37;;;;;;;14.57;8.27;;;;;;;0.61;86.83;101061.47;4994158;28;20045;-77
2022/01/29 04:00:04;;;;;;;12.83;8.10;;;;;;;0.41;86.68;101063.19;4993763;28;20157;-77
2022/01/29 04:02:30;;;;;;;15.70;8.37;;;;;;;0.43;86.81;101046.41;4993648;28;20497;-75
2022/01/29 04:04:55;;;;;;;13.43;7.87;;;;;;;0.10;87.07;101009.72;4993798;28;20026;-81
2022/01/29 04:07:21;;;;;;;18.03;8.63;;;;;;;0.43;87.44;101071.81;4994009;28;20027;-77
2022/01/29 04:09:51;;;;;;;17.50;8.90;;;;;;;-0.08;88.12;101029.28;4993630;28;20022;-76
2022/01/29 04:12:17;;;;;;;16.67;9.27;;;;;;;0.19;88.46;101067.13;4993855;28;20032;-79
2022/01/29 04:14:42;;;;;;;13.67;7.60;;;;;;;0.01;89.19;101058.78;4970604;28;20039;-76
2022/01/29 04:17:08;;;;;;;13.70;7.13;;;;;;;-0.42;90.56;101028.84;4971710;28;20042;-77
2022/01/29 04:19:34;;;;;;;15.70;7.87;;;;;;;-0.07;90.06;101073.34;4955377;28;20058;-72
2022/01/29 04:22:01;;;;;;;12.70;7.53;;;;;;;-0.17;89.62;101058.94;4955413;28;20039;-74
2022/01/29 04:24:27;;;;;;;16.80;8.23;;;;;;;-0.14;88.94;101038.03;4955419;28;20043;-74
2022/01/29 04:26:52;;;;;;;13.00;8.60;;;;;;;0.27;88.03;101089.91;4971564;28;20041;-73
2022/01/29 04:29:18;;;;;;;16.10;8.53;;;;;;;0.33;88.24;101099.72;4971236;28;20047;-76
2022/01/29 04:34:19;;;;;;;12.77;7.23;;;;;;;0.50;86.46;101111.38;4971418;28;20049;-75
2022/01/29 04:36:44;;;;;;;14.17;7.47;;;;;;;0.27;86.58;101067.03;4938542;28;20541;-73
2022/01/29 04:39:10;;;;;;;14.00;8.70;;;;;;;0.61;86.33;101115.75;4970847;28;20029;-75
2022/01/29 04:41:36;;;;;;;14.10;8.10;;;;;;;0.66;85.61;101102.53;4970581;28;20536;-74
2022/01/29 04:44:01;;;;;;;14.57;7.63;;;;;;;0.56;85.02;101105.91;4970267;28;20390;-75
2022/01/29 04:46:27;;;;;;;15.30;7.97;;;;;;;0.34;85.99;101091.34;4988359;28;20057;-72
2022/01/29 04:48:53;;;;;;;15.30;8.30;;;;;;;-0.26;87.70;101058.09;4992295;28;20489;-73
2022/01/29 04:51:19;;;;;;;24.80;13.17;;;;;;;-0.16;88.84;101114.03;4991191;28;20026;-75
2022/01/29 04:53:44;;;;;;;20.63;12.20;;;;;;;-0.23;88.91;101099.00;4992156;28;20428;-75
2022/01/29 04:56:10;;;;;;;25.57;11.60;;;;;;;-0.08;88.77;101119.78;4992277;28;20026;-71
2022/01/29 04:58:37;;;;;;;17.53;10.67;;;;;;;-0.11;88.84;101104.28;4992180;28;20034;-71
2022/01/29 05:01:04;;;;;;;20.33;11.33;;;;;;;-0.29;89.14;101108.59;4991164;28;20492;-76
2022/01/29 05:03:29;;;;;;;17.53;9.63;;;;;;;-0.32;89.11;101114.28;4992028;28;20033;-73
2022/01/29 05:05:55;;;;;;;20.43;10.20;;;;;;;-0.60;89.32;101098.19;4991918;28;20034;-74
2022/01/29 05:08:20;;;;;;;16.27;9.63;;;;;;;-0.27;89.03;101125.75;4992264;28;20393;-74
2022/01/29 05:10:46;;;;;;;17.37;9.57;;;;;;;-0.13;88.43;101119.38;4992246;28;20136;-75
2022/01/29 05:13:19;;;;;;;17.70;9.00;;;;;;;-0.09;87.66;101102.78;4992080;28;20031;-74
2022/01/29 05:15:59;;;;;;;17.43;8.67;;;;;;;0.08;87.59;101125.47;4992117;28;20026;-71
2022/01/29 05:27:02;;;;;;;16.13;8.20;;;;;;;-0.38;87.80;101146.69;4991923;28;20041;-75
2022/01/29 05:29:31;;;;;;;18.60;8.97;;;;;;;-0.75;88.45;101146.72;4991809;28;20450;-75
2022/01/29 05:32:00;;;;;;;17.17;8.67;;;;;;;-1.05;89.57;101154.91;4973551;28;20070;-78
2022/01/29 05:34:25;;;;;;;12.30;7.20;;;;;;;-0.80;89.81;101147.94;4992342;28;20068;-72
2022/01/29 05:36:51;;;;;;;16.70;8.53;;;;;;;-0.75;89.29;101143.31;4992156;28;20529;-72
2022/01/29 05:39:16;;;;;;;15.47;9.20;;;;;;;-0.99;88.75;101102.25;4973580;28;20129;-75
2022/01/29 05:41:42;;;;;;;15.47;8.67;;;;;;;-0.66;89.07;101145.06;4992234;28;20030;-74
2022/01/29 05:44:08;;;;;;;20.93;11.17;;;;;;;-0.62;88.58;101137.72;4991686;28;20034;-74
2022/01/29 05:46:34;;;;;;;20.50;11.00;;;;;;;-0.59;88.64;101153.22;4991685;28;20049;-72
2022/01/29 05:49:00;;;;;;;29.87;13.37;;;;;;;-0.55;89.20;101157.81;4990653;28;20034;-76
2022/01/29 05:51:29;;;;;;;27.93;16.20;;;;;;;-0.48;88.47;101156.78;4991782;28;20030;-73
2022/01/29 05:53:59;;;;;;;30.05;16.10;;;;;;;-0.86;89.40;101147.38;4991966;28;20042;-70
2022/01/29 05:56:25;;;;;;;24.23;13.83;;;;;;;-0.89;90.07;101172.44;4991859;28;20030;-77
2022/01/29 05:58:51;;;;;;;23.20;10.87;;;;;;;-0.83;90.77;101180.63;4991448;28;20030;-73
2022/01/29 06:01:17;;;;;;;30.83;11.60;;;;;;;-0.99;90.58;101145.34;4991113;28;20042;-74
2022/01/29 06:03:42;;;;;;;23.47;12.50;;;;;;;-0.58;89.99;101191.41;4991797;28;20033;-73
2022/01/29 06:06:08;;;;;;;21.53;11.07;;;;;;;-0.43;89.79;101179.25;4991499;28;20037;-74
2022/01/29 06:08:34;;;;;;;17.30;10.23;;;;;;;-0.30;89.17;101185.47;4984219;28;20031;-71
2022/01/29 06:10:59;;;;;;;22.20;13.87;;;;;;;-0.31;89.06;101184.56;4971887;28;20416;-73
2022/01/29 06:13:25;;;;;;;24.30;16.40;;;;;;;-0.51;88.91;101142.16;4989014;28;20038;-75
2022/01/29 06:15:52;;;;;;;25.00;15.17;;;;;;;-0.22;89.39;101199.75;4991694;28;20037;-79
2022/01/29 06:18:19;;;;;;;25.17;13.93;;;;;;;-0.26;91.02;101206.19;4989257;28;20034;-74
2022/01/29 06:20:51;;;;;;;22.23;14.97;;;;;;;-0.19;91.06;101215.25;4982987;28;20023;-73
2022/01/29 06:23:21;;;;;;;30.17;15.83;;;;;;;-0.10;91.45;101208.50;4953043;28;20033;-75
2022/01/29 06:25:46;;;;;;;20.53;13.63;;;;;;;-0.12;91.15;101214.19;4940671;28;20038;-75
2022/01/29 06:28:12;;;;;;;23.30;12.70;;;;;;;-0.36;91.01;101174.00;4990593;28;20030;-76
2022/01/29 06:30:38;;;;;;;21.37;11.50;;;;;;;-0.19;92.33;101225.41;4990085;28;20026;-75
2022/01/29 06:33:11;;;;;;;21.63;11.00;;;;;;;-0.22;93.78;101228.53;4972663;28;20034;-72
2022/01/29 06:35:39;;;;;;;26.47;10.97;;;;;;;-0.20;93.73;101206.75;4990104;28;20038;-74
2022/01/29 06:38:06;;;;;;;18.77;10.40;;;;;;;-0.08;92.14;101206.09;4990076;28;20034;-74
2022/01/29 06:40:32;;;;;;;20.77;13.83;;;;;;;-0.01;91.94;101213.50;4985058;28;20749;-75
2022/01/29 06:43:18;;;;;;;29.63;15.37;;;;;;;0.16;91.38;101222.66;4948672;29;20039;-73
2022/01/29 06:45:45;;;;;;;22.73;12.30;;;;;;;0.18;90.91;101220.28;4948731;29;20521;-72
2022/01/29 06:48:12;;;;;;;19.20;10.93;;;;;;;-0.05;91.24;101201.28;4948813;29;20093;-75
2022/01/29 06:50:37;;;;;;;17.10;10.13;;;;;;;-0.17;92.81;101193.44;4946491;29;20047;-74
2022/01/29 06:53:04;;;;;;;18.17;11.70;;;;;;;0.04;94.58;101231.69;4932277;29;20051;-73
2022/01/29 06:55:30;;;;;;;23.33;12.17;;;;;;;0.17;94.67;101241.31;4948608;29;20055;-72
2022/01/29 06:57:56;;;;;;;24.17;12.10;;;;;;;0.31;95.05;101246.00;4946564;29;20429;-75
2022/01/29 07:00:21;;;;;;;21.27;10.90;;;;;;;0.09;95.08;101192.41;4946189;29;20055;-76
2022/01/29 07:02:47;;;;;;;20.20;11.17;;;;;;;0.42;95.11;101214.81;4948556;29;20035;-74
2022/01/29 07:05:12;;;;;;;20.00;10.20;;;;;;;0.74;94.54;101246.44;4949030;29;20035;-73
2022/01/29 07:07:38;;;;;;;16.67;10.30;;;;;;;0.88;92.12;101250.19;4948459;29;20027;-76
2022/01/29 07:10:06;;;;;;;15.93;10.80;;;;;;;0.69;90.71;101214.63;4948485;29;20039;-73
2022/01/29 07:12:31;;;;;;;15.83;8.50;;;;;;;0.92;91.65;101252.22;4948857;28;20045;-73
2022/01/29 07:14:57;;;;;;;15.67;10.33;;;;;;;0.87;90.65;101238.22;4983384;28;20456;-74
2022/01/29 07:17:24;;;;;;;15.63;9.70;;;;;;;0.52;89.54;101173.34;4990069;28;20030;-72
2022/01/29 07:19:51;;;;;;;19.83;9.77;;;;;;;1.15;89.45;101245.72;4992626;28;20032;-73
2022/01/29 07:22:16;;;;;;;18.33;10.47;;;;;;;1.33;88.63;101236.25;4993400;28;20026;-73
2022/01/29 07:24:42;;;;;;;17.77;10.87;;;;;;;1.60;86.98;101253.00;4975993;28;20026;-73
2022/01/29 07:27:07;;;;;;;18.10;10.40;;;;;;;1.84;84.75;101253.31;4993382;28;20088;-76
2022/01/29 07:29:33;;;;;;;18.20;10.77;;;;;;;1.98;83.35;101247.75;4993377;28;20386;-73
2022/01/29 07:32:00;;;;;;;16.83;10.07;;;;;;;1.99;83.16;101248.63;4989114;28;20100;-74
2022/01/29 07:34:26;;;;;;;16.60;9.93;;;;;;;1.93;83.45;101232.06;4951780;29;20100;-74
2022/01/29 07:36:54;;;;;;;17.50;10.47;;;;;;;2.04;81.43;101242.25;4951788;29;20146;-73
2022/01/29 07:39:21;;;;;;;16.10;9.33;;;;;;;2.05;81.76;101242.38;4935846;29;20071;-74
2022/01/29 07:41:47;;;;;;;16.57;9.77;;;;;;;2.00;82.31;101248.75;4951810;29;20062;-74
2022/01/29 07:44:13;;;;;;;15.83;8.83;;;;;;;1.98;82.79;101254.47;4951889;29;20109;-74
2022/01/29 07:46:58;;;;;;;16.03;8.50;;;;;;;2.08;82.91;101249.38;4945595;29;20516;-73
2022/01/29 07:49:24;;;;;;;16.00;9.50;;;;;;;2.10;82.75;101245.31;4896258;29;20248;-72
2022/01/29 07:51:49;;;;;;;15.67;9.30;;;;;;;2.13;81.41;101234.47;4902474;29;20048;-73
2022/01/29 07:54:15;;;;;;;15.43;9.40;;;;;;;2.32;81.53;101255.63;4912788;29;20555;-74
2022/01/29 07:56:40;;;;;;;18.40;10.27;;;;;;;2.39;81.16;101255.38;4896573;29;20483;-72
2022/01/29 07:59:26;;;;;;;16.50;9.30;;;;;;;2.43;80.60;101256.53;4894331;29;20052;-74
2022/01/29 08:01:51;;;;;;;16.43;9.50;;;;;;;2.32;80.33;101242.91;4894611;29;20044;-72
2022/01/29 08:04:19;;;;;;;15.00;9.13;;;;;;;2.53;80.82;101256.50;4879799;29;20583;-75
2022/01/29 08:06:45;;;;;;;15.17;9.37;;;;;;;2.54;79.65;101242.09;4932207;29;20482;-75
2022/01/29 08:09:10;;;;;;;15.17;9.50;;;;;;;2.65;79.44;101254.03;4919887;29;20051;-73
2022/01/29 08:11:36;;;;;;;18.10;13.40;;;;;;;2.67;79.09;101254.19;4923891;29;20028;-76
2022/01/29 08:14:01;;;;;;;19.60;10.43;;;;;;;2.75;78.73;101274.44;4916132;29;20044;-76
2022/01/29 08:16:27;;;;;;;17.37;11.03;;;;;;;2.60;79.00;101250.25;4929744;29;20031;-75
2022/01/29 08:18:52;;;;;;;17.87;10.33;;;;;;;2.97;78.37;101290.59;4892544;29;20091;-72
2022/01/29 08:21:18;;;;;;;15.90;10.37;;;;;;;3.14;77.57;101289.38;4947101;28;20035;-76
2022/01/29 08:23:44;;;;;;;17.38;11.45;;;;;;;3.21;78.25;101276.34;4951163;29;20023;-76
2022/01/29 08:26:12;;;;;;;18.98;10.90;;;;;;;3.22;78.41;101271.34;4950718;28;20038;-73
2022/01/29 08:28:38;;;;;;;13.83;9.13;;;;;;;3.21;77.54;101273.78;4950910;29;20082;-74
2022/01/29 08:31:03;;;;;;;14.82;9.45;;;;;;;3.17;77.38;101293.06;4952602;28;20070;-78
2022/01/29 08:33:29;;;;;;;13.97;9.60;;;;;;;3.00;77.62;101276.41;4953333;28;20059;-72
2022/01/29 08:35:57;;;;;;;14.73;8.97;;;;;;;2.96;78.33;101289.69;4953000;28;20027;-78
2022/01/29 08:38:22;;;;;;;14.80;9.40;;;;;;;2.68;78.70;101253.41;4950417;28;20027;-74
2022/01/29 08:40:48;;;;;;;16.10;9.53;;;;;;;2.72;79.10;101263.97;4953258;29;20390;-74
2022/01/29 08:43:13;;;;;;;17.25;13.10;;;;;;;2.96;79.16;101276.94;4952990;28;20020;-75
2022/01/29 08:45:39;;;;;;;18.17;10.30;;;;;;;2.85;77.77;101244.56;4952687;28;20039;-72
2022/01/29 08:48:04;;;;;;;15.90;9.35;;;;;;;3.24;77.77;101281.72;4949612;28;20036;-75
2022/01/29 08:50:30;;;;;;;16.08;10.07;;;;;;;3.30;77.81;101294.06;4952722;29;20042;-75
2022/01/29 08:52:55;;;;;;;16.40;10.02;;;;;;;3.30;78.13;101306.81;4953067;28;20167;-73
2022/01/29 08:55:21;;;;;;;17.05;9.80;;;;;;;3.36;77.49;101297.09;4987374;28;20056;-74
2022/01/29 08:57:47;;;;;;;15.65;9.70;;;;;;;3.36;77.12;101282.66;4983060;28;20027;-74
2022/01/29 09:00:13;;;;;;;14.45;8.23;;;;;;;3.10;75.63;101231.25;4984829;28;20034;-74
2022/01/29 09:02:39;;;;;;;14.65;7.70;;;;;;;3.29;73.82;101290.63;4963974;28;20049;-73
2022/01/29 09:05:06;;;;;;;13.38;8.45;;;;;;;3.32;75.51;101290.84;4986859;28;20031;-74
2022/01/29 09:07:31;;;;;;;14.82;8.55;;;;;;;3.50;75.33;101285.41;4984352;28;20029;-74
2022/01/29 09:09:59;;;;;;;13.68;8.85;;;;;;;3.77;74.76;101301.13;4991461;28;20031;-73
2022/01/29 09:12:25;;;;;;;14.32;9.45;;;;;;;3.88;74.46;101296.06;4991137;28;20034;-73
2022/01/29 09:14:50;;;;;;;14.73;8.90;;;;;;;3.97;74.75;101288.19;4990645;28;20026;-74
2022/01/29 09:17:16;;;;;;;20.17;11.40;;;;;;;4.02;75.63;101291.13;4990982;28;20518;-74
2022/01/29 09:19:41;;;;;;;17.88;12.40;;;;;;;3.94;75.55;101277.75;4981572;28;20036;-73
2022/01/29 09:22:07;;;;;;;19.25;10.00;;;;;;;4.21;74.79;101301.97;4988365;28;20101;-76
2022/01/29 09:24:32;;;;;;;17.08;9.52;;;;;;;4.32;73.84;101296.78;4990963;28;20022;-74
2022/01/29 09:26:59;;;;;;;16.77;8.50;;;;;;;4.48;71.57;101291.16;4990292;28;20031;-77
2022/01/29 09:29:24;;;;;;;13.50;8.15;;;;;;;4.64;71.21;101294.06;4992304;28;20106;-74
2022/01/29 09:31:50;;;;;;;11.20;8.05;;;;;;;4.65;71.44;101285.63;4992465;28;20034;-76
2022/01/29 09:34:15;;;;;;;14.80;7.35;;;;;;;4.56;70.19;101238.94;4992476;28;20025;-75
2022/01/29 09:36:41;;;;;;;13.18;7.70;;;;;;;4.49;68.85;101222.22;4991408;28;20038;-75
2022/01/29 09:39:06;;;;;;;12.50;7.38;;;;;;;4.89;69.34;101283.09;4992257;28;20032;-72
2022/01/29 09:41:32;;;;;;;11.63;7.28;;;;;;;4.60;68.56;101242.56;4992088;28;20034;-72
2022/01/29 09:43:58;;;;;;;13.27;7.65;;;;;;;4.79;68.88;101281.50;4992173;28;20034;-74
2022/01/29 09:46:32;;;;;;;16.60;7.38;;;;;;;4.88;69.81;101285.53;4992319;28;20100;-72
2022/01/29 09:48:59;;;;;;;13.75;7.38;;;;;;;4.83;68.50;101285.19;4992178;28;20465;-76
2022/01/29 09:51:26;;;;;;;13.45;7.40;;;;;;;4.60;68.04;101229.78;4990908;28;20149;-74
2022/01/29 09:53:52;;;;;;;15.50;7.60;;;;;;;4.82;67.55;101268.06;4992060;28;20050;-75
2022/01/29 09:56:17;;;;;;;13.65;6.88;;;;;;;4.70;67.95;101222.03;4991763;28;20030;-77
2022/01/29 09:58:43;;;;;;;18.17;7.68;;;;;;;5.15;66.99;101269.59;4991983;28;20030;-74
2022/01/29 10:01:09;;;;;;;19.02;7.95;;;;;;;5.18;67.11;101269.84;4992180;28;20023;-73
2022/01/29 10:03:35;;;;;;;14.45;7.03;;;;;;;5.32;66.45;101254.53;4991824;28;20110;-74
2022/01/29 10:06:03;;;;;;;17.08;7.78;;;;;;;5.32;66.67;101249.44;4985633;28;20034;-74
2022/01/29 10:08:30;;;;;;;15.00;7.28;;;;;;;5.41;66.78;101254.31;4991242;28;20113;-75
2022/01/29 10:10:57;;;;;;;18.55;8.13;;;;;;;5.40;65.33;101232.06;4973781;28;20033;-73
2022/01/29 10:13:29;;;;;;;17.30;7.25;;;;;;;5.54;65.79;101243.28;4972160;28;20442;-77
2022/01/29 10:16:22;;;;;;;16.98;7.90;;;;;;;5.63;65.84;101236.22;4972232;28;20094;-73
2022/01/29 10:18:58;;;;;;;20.60;7.57;;;;;;;5.75;65.09;101249.00;4972589;28;20046;-75
2022/01/29 10:21:25;;;;;;;14.18;6.63;;;;;;;5.73;64.58;101242.88;4986126;28;20033;-77
2022/01/29 10:24:02;;;;;;;16.90;7.65;;;;;;;5.83;64.97;101248.75;4982412;28;20097;-74
2022/01/29 10:26:31;;;;;;;19.80;7.30;;;;;;;5.97;64.57;101251.34;4982332;28;20065;-74
2022/01/29 10:28:56;;;;;;;22.95;8.40;;;;;;;5.93;65.52;101241.66;4964310;28;20449;-74
2022/01/29 10:31:23;;;;;;;23.02;12.45;;;;;;;5.99;66.25;101250.72;4980214;28;20073;-75
2022/01/29 10:33:48;;;;;;;16.77;7.90;;;;;;;5.89;64.82;101234.56;4981890;28;20038;-76
2022/01/29 10:36:19;;;;;;;14.05;7.40;;;;;;;5.97;64.46;101246.22;4987301;28;20109;-75
2022/01/29 10:38:47;;;;;;;13.18;6.28;;;;;;;6.05;63.93;101246.78;4983899;28;20027;-75
2022/01/29 10:41:27;;;;;;;16.80;7.78;;;;;;;6.02;63.85;101244.91;4974360;28;20094;-79
2022/01/29 10:44:15;;;;;;;15.32;6.65;;;;;;;6.16;63.08;101250.97;4972046;28;20031;-74
2022/01/29 10:46:46;;;;;;;15.68;6.07;;;;;;;6.25;63.15;101254.13;4938811;28;20043;-74
2022/01/29 10:49:27;;;;;;;15.55;6.78;;;;;;;6.31;63.86;101248.53;4975489;28;20045;-79
2022/01/29 10:52:10;;;;;;;10.40;5.70;;;;;;;6.37;62.36;101240.34;4975910;28;20026;-75
2022/01/29 10:54:37;;;;;;;13.23;5.82;;;;;;;6.30;61.14;101216.84;4975569;28;20054;-75
2022/01/29 10:57:04;;;;;;;12.05;5.80;;;;;;;6.42;61.57;101236.44;4927148;28;20192;-73
2022/01/29 10:59:35;;;;;;;15.60;6.45;;;;;;;6.58;60.68;101228.03;4990387;28;20034;-76
2022/01/29 11:02:03;;;;;;;12.20;6.22;;;;;;;6.46;60.21;101212.75;4985757;28;20035;-74
2022/01/29 11:04:30;;;;;;;9.93;5.22;;;;;;;6.25;59.96;101220.78;4983910;28;20023;-78
2022/01/29 11:07:00;;;;;;;10.93;4.63;;;;;;;6.24;62.02;101225.81;4985206;28;20033;-72
2022/01/29 11:09:28;;;;;;;11.35;3.97;;;;;;;5.86;59.65;101214.75;4985475;28;20061;-75
2022/01/29 11:11:56;;;;;;;10.40;5.55;;;;;;;5.80;60.58;101237.38;4972336;28;20505;-73
2022/01/29 11:14:22;;;;;;;13.32;5.93;;;;;;;5.83;61.61;101240.13;4972693;28;20039;-73
2022/01/29 11:16:49;;;;;;;13.45;6.38;;;;;;;6.07;61.63;101227.25;4963654;28;20038;-73
2022/01/29 11:19:18;;;;;;;5.30;2.50;;;;;;;5.88;57.13;101223.44;4962828;28;20109;-73
2022/01/29 11:21:49;;;;;;;10.25;8.10;;;;;;;5.88;58.73;101228.56;4920796;28;20091;-74
2022/01/29 11:24:18;;;;;;;7.72;4.22;;;;;;;6.01;59.47;101231.97;4971295;28;20118;-72
2022/01/29 11:26:45;;;;;;;6.47;3.40;;;;;;;5.93;58.37;101222.06;4968125;28;20039;-73
2022/01/29 11:29:25;;;;;;;6.88;3.50;;;;;;;6.07;58.53;101230.72;4972318;28;20074;-73
2022/01/29 11:32:21;;;;;;;5.05;3.15;;;;;;;6.08;58.01;101227.38;4970818;28;20236;-74